sensor_id;sensor_type;location;lat;lon;timestamp;P1;P2;P0
49528;PMS5003;35423;37.320;-121.762;2023-06-10T00:01:44;3;3;
49528;PMS5003;35423;37.320;-121.762;2023-06-10T00:04:10;0;0;
49528;PMS5003;35423;37.320;-121.762;2023-06-10T00:06:39;3;3;
49528;PMS5003;35423;37.320;-121.762;2023-06-10T00:09:11;3;3;
49528;PMS5003;35423;37.320;-121.762;2023-06-10T00:11:35;4;4;
49528;PMS5003;35423;37.320;-121.762;2023-06-10T00:14:12;2;2;
49528;PMS5003;35423;37.320;-121.762;2023-06-10T00:16:40;5;5;
49528;PMS5003;35423;37.320;-121.762;2023-06-10T00:19:07;1;1;
49528;PMS5003;35423;37.320;-121.762;2023-06-10T00:21:35;3;3;
49528;PMS5003;35423;37.320;-121.762;2023-06-10T00:24:07;2;2;
49528;PMS5003;35423;37.320;-121.762;2023-06-10T00:26:32;2;2;
49528;PMS5003;35423;37.320;-121.762;2023-06-10T00:28:58;2;2;
49528;PMS5003;35423;37.320;-121.762;2023-06-10T00:31:27;5;5;
49528;PMS5003;35423;37.320;-121.762;2023-06-10T00:33:53;0;0;
49528;PMS5003;35423;37.320;-121.762;2023-06-10T00:36:18;3;3;
49528;PMS5003;35423;37.320;-121.762;2023-06-10T00:38:47;1;1;
49528;PMS5003;35423;37.320;-121.762;2023-06-10T00:41:13;3;3;
49528;PMS5003;35423;37.320;-121.762;2023-06-10T00:43:39;2;2;
49528;PMS5003;35423;37.320;-121.762;2023-06-10T00:46:10;3;3;
49528;PMS5003;35423;37.320;-121.762;2023-06-10T00:48:38;4;4;
49528;PMS5003;35423;37.320;-121.762;2023-06-10T00:51:04;2;2;
49528;PMS5003;35423;37.320;-121.762;2023-06-10T00:53:29;4;4;
49528;PMS5003;35423;37.320;-121.762;2023-06-10T00:56:01;4;4;
49528;PMS5003;35423;37.320;-121.762;2023-06-10T00:58:26;2;2;
49528;PMS5003;35423;37.320;-121.762;2023-06-10T01:00:51;4;4;
49528;PMS5003;35423;37.320;-121.762;2023-06-10T01:03:19;3;3;
49528;PMS5003;35423;37.320;-121.762;2023-06-10T01:05:45;3;3;
49528;PMS5003;35423;37.320;-121.762;2023-06-10T01:08:13;1;1;
49528;PMS5003;35423;37.320;-121.762;2023-06-10T01:10:41;1;1;
49528;PMS5003;35423;37.320;-121.762;2023-06-10T01:13:12;5;5;
49528;PMS5003;35423;37.320;-121.762;2023-06-10T01:15:38;0;0;
49528;PMS5003;35423;37.320;-121.762;2023-06-10T01:18:04;0;0;
49528;PMS5003;35423;37.320;-121.762;2023-06-10T01:20:30;1;1;
49528;PMS5003;35423;37.320;-121.762;2023-06-10T01:22:59;0;0;
49528;PMS5003;35423;37.320;-121.762;2023-06-10T01:25:25;0;0;
49528;PMS5003;35423;37.320;-121.762;2023-06-10T01:27:50;1;1;
49528;PMS5003;35423;37.320;-121.762;2023-06-10T01:30:24;1;1;
49528;PMS5003;35423;37.320;-121.762;2023-06-10T01:32:50;2;2;
49528;PMS5003;35423;37.320;-121.762;2023-06-10T01:35:17;2;2;
49528;PMS5003;35423;37.320;-121.762;2023-06-10T01:37:43;2;2;
49528;PMS5003;35423;37.320;-121.762;2023-06-10T01:40:11;9;9;
49528;PMS5003;35423;37.320;-121.762;2023-06-10T01:42:38;4;4;
49528;PMS5003;35423;37.320;-121.762;2023-06-10T01:45:05;2;2;
49528;PMS5003;35423;37.320;-121.762;2023-06-10T01:47:31;3;3;
49528;PMS5003;35423;37.320;-121.762;2023-06-10T01:49:57;1;1;
49528;PMS5003;35423;37.320;-121.762;2023-06-10T01:52:27;2;2;
49528;PMS5003;35423;37.320;-121.762;2023-06-10T01:54:55;4;4;
49528;PMS5003;35423;37.320;-121.762;2023-06-10T01:57:20;5;5;
49528;PMS5003;35423;37.320;-121.762;2023-06-10T01:59:47;2;2;
49528;PMS5003;35423;37.320;-121.762;2023-06-10T02:02:18;1;1;
49528;PMS5003;35423;37.320;-121.762;2023-06-10T02:04:44;1;1;
49528;PMS5003;35423;37.320;-121.762;2023-06-10T02:07:15;8;2;
49528;PMS5003;35423;37.320;-121.762;2023-06-10T02:09:37;3;3;
49528;PMS5003;35423;37.320;-121.762;2023-06-10T02:12:03;0;0;
49528;PMS5003;35423;37.320;-121.762;2023-06-10T02:14:36;2;2;
49528;PMS5003;35423;37.320;-121.762;2023-06-10T02:17:04;1;1;
49528;PMS5003;35423;37.320;-121.762;2023-06-10T02:19:33;5;5;
49528;PMS5003;35423;37.320;-121.762;2023-06-10T02:21:58;4;4;
49528;PMS5003;35423;37.320;-121.762;2023-06-10T02:24:24;2;2;
49528;PMS5003;35423;37.320;-121.762;2023-06-10T02:26:52;3;3;
49528;PMS5003;35423;37.320;-121.762;2023-06-10T02:29:21;0;0;
49528;PMS5003;35423;37.320;-121.762;2023-06-10T02:31:47;2;2;
49528;PMS5003;35423;37.320;-121.762;2023-06-10T02:34:13;1;1;
49528;PMS5003;35423;37.320;-121.762;2023-06-10T02:36:39;1;1;
49528;PMS5003;35423;37.320;-121.762;2023-06-10T02:39:09;2;2;
49528;PMS5003;35423;37.320;-121.762;2023-06-10T02:41:35;2;2;
49528;PMS5003;35423;37.320;-121.762;2023-06-10T02:44:00;7;2;
49528;PMS5003;35423;37.320;-121.762;2023-06-10T02:46:28;2;2;
49528;PMS5003;35423;37.320;-121.762;2023-06-10T02:48:55;1;1;
49528;PMS5003;35423;37.320;-121.762;2023-06-10T02:51:23;2;2;
49528;PMS5003;35423;37.320;-121.762;2023-06-10T02:53:56;1;1;
49528;PMS5003;35423;37.320;-121.762;2023-06-10T02:56:24;2;2;
49528;PMS5003;35423;37.320;-121.762;2023-06-10T02:58:49;5;0;
49528;PMS5003;35423;37.320;-121.762;2023-06-10T03:01:17;1;1;
49528;PMS5003;35423;37.320;-121.762;2023-06-10T03:03:42;2;2;
49528;PMS5003;35423;37.320;-121.762;2023-06-10T03:06:10;2;2;
49528;PMS5003;35423;37.320;-121.762;2023-06-10T03:08:35;3;3;
49528;PMS5003;35423;37.320;-121.762;2023-06-10T03:11:03;2;2;
49528;PMS5003;35423;37.320;-121.762;2023-06-10T03:13:29;0;0;
49528;PMS5003;35423;37.320;-121.762;2023-06-10T03:15:56;3;3;
49528;PMS5003;35423;37.320;-121.762;2023-06-10T03:18:25;2;2;
49528;PMS5003;35423;37.320;-121.762;2023-06-10T03:20:47;2;2;
49528;PMS5003;35423;37.320;-121.762;2023-06-10T03:23:13;2;2;
49528;PMS5003;35423;37.320;-121.762;2023-06-10T03:25:39;3;3;
49528;PMS5003;35423;37.320;-121.762;2023-06-10T03:28:08;3;3;
49528;PMS5003;35423;37.320;-121.762;2023-06-10T03:30:33;1;1;
49528;PMS5003;35423;37.320;-121.762;2023-06-10T03:33:00;0;0;
49528;PMS5003;35423;37.320;-121.762;2023-06-10T03:35:25;1;1;
49528;PMS5003;35423;37.320;-121.762;2023-06-10T03:37:50;1;1;
49528;PMS5003;35423;37.320;-121.762;2023-06-10T03:40:18;1;1;
49528;PMS5003;35423;37.320;-121.762;2023-06-10T03:42:44;1;1;
49528;PMS5003;35423;37.320;-121.762;2023-06-10T03:45:09;0;0;
49528;PMS5003;35423;37.320;-121.762;2023-06-10T03:47:35;0;0;
49528;PMS5003;35423;37.320;-121.762;2023-06-10T03:50:00;1;1;
49528;PMS5003;35423;37.320;-121.762;2023-06-10T03:52:28;3;3;
49528;PMS5003;35423;37.320;-121.762;2023-06-10T03:54:53;0;0;
49528;PMS5003;35423;37.320;-121.762;2023-06-10T03:57:21;1;1;
49528;PMS5003;35423;37.320;-121.762;2023-06-10T03:59:47;0;0;
49528;PMS5003;35423;37.320;-121.762;2023-06-10T04:02:17;1;1;
49528;PMS5003;35423;37.320;-121.762;2023-06-10T04:04:43;1;1;
49528;PMS5003;35423;37.320;-121.762;2023-06-10T04:07:16;3;1;
49528;PMS5003;35423;37.320;-121.762;2023-06-10T04:09:48;1;1;
49528;PMS5003;35423;37.320;-121.762;2023-06-10T04:12:17;1;1;
49528;PMS5003;35423;37.320;-121.762;2023-06-10T04:14:43;1;1;
49528;PMS5003;35423;37.320;-121.762;2023-06-10T04:17:10;0;0;
49528;PMS5003;35423;37.320;-121.762;2023-06-10T04:19:36;0;0;
49528;PMS5003;35423;37.320;-121.762;2023-06-10T04:22:05;1;1;
49528;PMS5003;35423;37.320;-121.762;2023-06-10T04:24:31;0;0;
49528;PMS5003;35423;37.320;-121.762;2023-06-10T04:27:01;1;1;
49528;PMS5003;35423;37.320;-121.762;2023-06-10T04:29:27;0;0;
49528;PMS5003;35423;37.320;-121.762;2023-06-10T04:31:56;1;1;
49528;PMS5003;35423;37.320;-121.762;2023-06-10T04:34:22;2;2;
49528;PMS5003;35423;37.320;-121.762;2023-06-10T04:36:48;0;0;
49528;PMS5003;35423;37.320;-121.762;2023-06-10T04:39:15;0;0;
49528;PMS5003;35423;37.320;-121.762;2023-06-10T04:41:41;0;0;
49528;PMS5003;35423;37.320;-121.762;2023-06-10T04:44:08;1;1;
49528;PMS5003;35423;37.320;-121.762;2023-06-10T04:46:39;0;0;
49528;PMS5003;35423;37.320;-121.762;2023-06-10T04:49:06;0;0;
49528;PMS5003;35423;37.320;-121.762;2023-06-10T04:51:30;1;1;
49528;PMS5003;35423;37.320;-121.762;2023-06-10T04:54:01;0;0;
49528;PMS5003;35423;37.320;-121.762;2023-06-10T04:56:30;0;0;
49528;PMS5003;35423;37.320;-121.762;2023-06-10T04:58:56;0;0;
49528;PMS5003;35423;37.320;-121.762;2023-06-10T05:01:22;0;0;
49528;PMS5003;35423;37.320;-121.762;2023-06-10T05:03:47;0;0;
49528;PMS5003;35423;37.320;-121.762;2023-06-10T05:06:15;0;0;
49528;PMS5003;35423;37.320;-121.762;2023-06-10T05:08:44;0;0;
49528;PMS5003;35423;37.320;-121.762;2023-06-10T05:11:16;1;1;
49528;PMS5003;35423;37.320;-121.762;2023-06-10T05:13:41;3;3;
49528;PMS5003;35423;37.320;-121.762;2023-06-10T05:16:12;1;1;
49528;PMS5003;35423;37.320;-121.762;2023-06-10T05:18:37;0;0;
49528;PMS5003;35423;37.320;-121.762;2023-06-10T05:21:02;0;0;
49528;PMS5003;35423;37.320;-121.762;2023-06-10T05:23:30;0;0;
49528;PMS5003;35423;37.320;-121.762;2023-06-10T05:25:57;0;0;
49528;PMS5003;35423;37.320;-121.762;2023-06-10T05:28:30;1;1;
49528;PMS5003;35423;37.320;-121.762;2023-06-10T05:30:58;0;0;
49528;PMS5003;35423;37.320;-121.762;2023-06-10T05:33:23;3;3;
49528;PMS5003;35423;37.320;-121.762;2023-06-10T05:35:51;3;1;
49528;PMS5003;35423;37.320;-121.762;2023-06-10T05:38:25;0;0;
49528;PMS5003;35423;37.320;-121.762;2023-06-10T05:40:50;1;1;
49528;PMS5003;35423;37.320;-121.762;2023-06-10T05:43:15;0;0;
49528;PMS5003;35423;37.320;-121.762;2023-06-10T05:45:41;0;0;
49528;PMS5003;35423;37.320;-121.762;2023-06-10T05:48:08;1;1;
49528;PMS5003;35423;37.320;-121.762;2023-06-10T05:50:34;0;0;
49528;PMS5003;35423;37.320;-121.762;2023-06-10T05:53:07;0;0;
49528;PMS5003;35423;37.320;-121.762;2023-06-10T05:55:34;0;0;
49528;PMS5003;35423;37.320;-121.762;2023-06-10T05:57:59;3;3;
49528;PMS5003;35423;37.320;-121.762;2023-06-10T06:00:29;0;0;
49528;PMS5003;35423;37.320;-121.762;2023-06-10T06:02:54;1;1;
49528;PMS5003;35423;37.320;-121.762;2023-06-10T06:05:28;1;1;
49528;PMS5003;35423;37.320;-121.762;2023-06-10T06:07:52;1;1;
49528;PMS5003;35423;37.320;-121.762;2023-06-10T06:10:21;1;1;
49528;PMS5003;35423;37.320;-121.762;2023-06-10T06:12:50;0;0;
49528;PMS5003;35423;37.320;-121.762;2023-06-10T06:15:19;1;1;
49528;PMS5003;35423;37.320;-121.762;2023-06-10T06:17:44;0;0;
49528;PMS5003;35423;37.320;-121.762;2023-06-10T06:20:13;1;1;
49528;PMS5003;35423;37.320;-121.762;2023-06-10T06:22:39;2;2;
49528;PMS5003;35423;37.320;-121.762;2023-06-10T06:25:07;2;2;
49528;PMS5003;35423;37.320;-121.762;2023-06-10T06:27:34;2;2;
49528;PMS5003;35423;37.320;-121.762;2023-06-10T06:30:00;0;0;
49528;PMS5003;35423;37.320;-121.762;2023-06-10T06:32:27;1;1;
49528;PMS5003;35423;37.320;-121.762;2023-06-10T06:34:55;3;3;
49528;PMS5003;35423;37.320;-121.762;2023-06-10T06:37:25;2;2;
49528;PMS5003;35423;37.320;-121.762;2023-06-10T06:39:50;3;3;
49528;PMS5003;35423;37.320;-121.762;2023-06-10T06:42:16;3;3;
49528;PMS5003;35423;37.320;-121.762;2023-06-10T06:44:47;0;0;
49528;PMS5003;35423;37.320;-121.762;2023-06-10T06:47:19;2;2;
49528;PMS5003;35423;37.320;-121.762;2023-06-10T06:49:47;0;0;
49528;PMS5003;35423;37.320;-121.762;2023-06-10T06:52:31;0;0;
49528;PMS5003;35423;37.320;-121.762;2023-06-10T06:54:50;2;2;
49528;PMS5003;35423;37.320;-121.762;2023-06-10T06:57:24;0;0;
49528;PMS5003;35423;37.320;-121.762;2023-06-10T06:59:50;1;1;
49528;PMS5003;35423;37.320;-121.762;2023-06-10T07:02:18;2;2;
49528;PMS5003;35423;37.320;-121.762;2023-06-10T07:04:45;1;1;
49528;PMS5003;35423;37.320;-121.762;2023-06-10T07:07:17;3;3;
49528;PMS5003;35423;37.320;-121.762;2023-06-10T07:09:42;2;2;
49528;PMS5003;35423;37.320;-121.762;2023-06-10T07:12:14;1;1;
49528;PMS5003;35423;37.320;-121.762;2023-06-10T07:14:44;3;3;
49528;PMS5003;35423;37.320;-121.762;2023-06-10T07:17:15;1;1;
49528;PMS5003;35423;37.320;-121.762;2023-06-10T07:19:38;1;1;
49528;PMS5003;35423;37.320;-121.762;2023-06-10T07:22:06;1;1;
49528;PMS5003;35423;37.320;-121.762;2023-06-10T07:24:39;2;2;
49528;PMS5003;35423;37.320;-121.762;2023-06-10T07:27:06;2;2;
49528;PMS5003;35423;37.320;-121.762;2023-06-10T07:29:33;0;0;
49528;PMS5003;35423;37.320;-121.762;2023-06-10T07:31:58;3;3;
49528;PMS5003;35423;37.320;-121.762;2023-06-10T07:34:27;1;1;
49528;PMS5003;35423;37.320;-121.762;2023-06-10T07:36:54;1;1;
49528;PMS5003;35423;37.320;-121.762;2023-06-10T07:39:22;2;2;
49528;PMS5003;35423;37.320;-121.762;2023-06-10T07:41:50;0;0;
49528;PMS5003;35423;37.320;-121.762;2023-06-10T07:44:16;1;1;
49528;PMS5003;35423;37.320;-121.762;2023-06-10T07:46:50;3;3;
49528;PMS5003;35423;37.320;-121.762;2023-06-10T07:49:26;0;0;
49528;PMS5003;35423;37.320;-121.762;2023-06-10T07:51:53;1;1;
49528;PMS5003;35423;37.320;-121.762;2023-06-10T07:54:16;2;2;
49528;PMS5003;35423;37.320;-121.762;2023-06-10T07:56:44;2;2;
49528;PMS5003;35423;37.320;-121.762;2023-06-10T07:59:13;2;2;
49528;PMS5003;35423;37.320;-121.762;2023-06-10T08:01:41;1;1;
49528;PMS5003;35423;37.320;-121.762;2023-06-10T08:04:07;1;1;
49528;PMS5003;35423;37.320;-121.762;2023-06-10T08:06:32;1;1;
49528;PMS5003;35423;37.320;-121.762;2023-06-10T08:08:58;0;0;
49528;PMS5003;35423;37.320;-121.762;2023-06-10T08:11:23;2;2;
49528;PMS5003;35423;37.320;-121.762;2023-06-10T08:13:55;3;3;
49528;PMS5003;35423;37.320;-121.762;2023-06-10T08:16:18;2;2;
49528;PMS5003;35423;37.320;-121.762;2023-06-10T08:18:47;4;4;
49528;PMS5003;35423;37.320;-121.762;2023-06-10T08:21:14;2;2;
49528;PMS5003;35423;37.320;-121.762;2023-06-10T08:23:44;4;4;
49528;PMS5003;35423;37.320;-121.762;2023-06-10T08:26:09;3;3;
49528;PMS5003;35423;37.320;-121.762;2023-06-10T08:28:39;3;3;
49528;PMS5003;35423;37.320;-121.762;2023-06-10T08:31:07;2;2;
49528;PMS5003;35423;37.320;-121.762;2023-06-10T08:33:32;3;3;
49528;PMS5003;35423;37.320;-121.762;2023-06-10T08:35:59;5;3;
49528;PMS5003;35423;37.320;-121.762;2023-06-10T08:38:30;2;2;
49528;PMS5003;35423;37.320;-121.762;2023-06-10T08:40:56;1;1;
49528;PMS5003;35423;37.320;-121.762;2023-06-10T08:43:25;0;0;
49528;PMS5003;35423;37.320;-121.762;2023-06-10T08:45:49;0;0;
49528;PMS5003;35423;37.320;-121.762;2023-06-10T08:48:14;2;2;
49528;PMS5003;35423;37.320;-121.762;2023-06-10T08:50:40;3;3;
49528;PMS5003;35423;37.320;-121.762;2023-06-10T08:53:06;5;5;
49528;PMS5003;35423;37.320;-121.762;2023-06-10T08:55:32;7;7;
49528;PMS5003;35423;37.320;-121.762;2023-06-10T08:57:58;4;4;
49528;PMS5003;35423;37.320;-121.762;2023-06-10T09:00:23;1;1;
49528;PMS5003;35423;37.320;-121.762;2023-06-10T09:02:50;2;2;
49528;PMS5003;35423;37.320;-121.762;2023-06-10T09:05:16;3;3;
49528;PMS5003;35423;37.320;-121.762;2023-06-10T09:07:42;8;7;
49528;PMS5003;35423;37.320;-121.762;2023-06-10T09:10:08;3;3;
49528;PMS5003;35423;37.320;-121.762;2023-06-10T09:12:41;2;2;
49528;PMS5003;35423;37.320;-121.762;2023-06-10T09:15:07;3;3;
49528;PMS5003;35423;37.320;-121.762;2023-06-10T09:17:40;6;6;
49528;PMS5003;35423;37.320;-121.762;2023-06-10T09:20:10;6;6;
49528;PMS5003;35423;37.320;-121.762;2023-06-10T09:22:42;2;2;
49528;PMS5003;35423;37.320;-121.762;2023-06-10T09:25:12;1;1;
49528;PMS5003;35423;37.320;-121.762;2023-06-10T09:30:05;3;3;
49528;PMS5003;35423;37.320;-121.762;2023-06-10T09:32:31;3;3;
49528;PMS5003;35423;37.320;-121.762;2023-06-10T09:34:58;3;3;
49528;PMS5003;35423;37.320;-121.762;2023-06-10T09:37:24;5;5;
49528;PMS5003;35423;37.320;-121.762;2023-06-10T09:42:17;2;2;
49528;PMS5003;35423;37.320;-121.762;2023-06-10T09:47:12;6;6;
49528;PMS5003;35423;37.320;-121.762;2023-06-10T09:49:37;5;5;
49528;PMS5003;35423;37.320;-121.762;2023-06-10T09:52:04;3;3;
49528;PMS5003;35423;37.320;-121.762;2023-06-10T09:54:34;1;1;
49528;PMS5003;35423;37.320;-121.762;2023-06-10T09:57:00;4;4;
49528;PMS5003;35423;37.320;-121.762;2023-06-10T09:59:28;3;3;
49528;PMS5003;35423;37.320;-121.762;2023-06-10T10:01:57;3;3;
49528;PMS5003;35423;37.320;-121.762;2023-06-10T10:04:25;5;5;
49528;PMS5003;35423;37.320;-121.762;2023-06-10T10:06:52;4;4;
49528;PMS5003;35423;37.320;-121.762;2023-06-10T10:09:18;2;2;
49528;PMS5003;35423;37.320;-121.762;2023-06-10T10:11:45;4;4;
49528;PMS5003;35423;37.320;-121.762;2023-06-10T10:14:11;3;3;
49528;PMS5003;35423;37.320;-121.762;2023-06-10T10:16:36;3;3;
49528;PMS5003;35423;37.320;-121.762;2023-06-10T10:19:06;4;4;
49528;PMS5003;35423;37.320;-121.762;2023-06-10T10:21:31;5;5;
49528;PMS5003;35423;37.320;-121.762;2023-06-10T10:23:57;5;5;
49528;PMS5003;35423;37.320;-121.762;2023-06-10T10:26:25;7;7;
49528;PMS5003;35423;37.320;-121.762;2023-06-10T10:28:53;4;4;
49528;PMS5003;35423;37.320;-121.762;2023-06-10T10:31:18;1;1;
49528;PMS5003;35423;37.320;-121.762;2023-06-10T10:33:45;5;5;
49528;PMS5003;35423;37.320;-121.762;2023-06-10T10:36:08;7;7;
49528;PMS5003;35423;37.320;-121.762;2023-06-10T10:38:34;4;4;
49528;PMS5003;35423;37.320;-121.762;2023-06-10T10:41:03;5;5;
49528;PMS5003;35423;37.320;-121.762;2023-06-10T10:43:32;2;2;
49528;PMS5003;35423;37.320;-121.762;2023-06-10T10:46:00;1;1;
49528;PMS5003;35423;37.320;-121.762;2023-06-10T10:48:32;5;5;
49528;PMS5003;35423;37.320;-121.762;2023-06-10T10:51:00;2;2;
49528;PMS5003;35423;37.320;-121.762;2023-06-10T10:53:26;8;5;
49528;PMS5003;35423;37.320;-121.762;2023-06-10T10:58:23;4;4;
49528;PMS5003;35423;37.320;-121.762;2023-06-10T11:00:44;4;4;
49528;PMS5003;35423;37.320;-121.762;2023-06-10T11:03:14;4;4;
49528;PMS5003;35423;37.320;-121.762;2023-06-10T11:05:41;4;4;
49528;PMS5003;35423;37.320;-121.762;2023-06-10T11:08:07;5;5;
49528;PMS5003;35423;37.320;-121.762;2023-06-10T11:10:31;5;5;
49528;PMS5003;35423;37.320;-121.762;2023-06-10T11:13:02;6;6;
49528;PMS5003;35423;37.320;-121.762;2023-06-10T11:15:26;7;3;
49528;PMS5003;35423;37.320;-121.762;2023-06-10T11:23:01;5;5;
49528;PMS5003;35423;37.320;-121.762;2023-06-10T11:27:54;5;5;
49528;PMS5003;35423;37.320;-121.762;2023-06-10T11:30:25;5;5;
49528;PMS5003;35423;37.320;-121.762;2023-06-10T11:32:51;5;5;
49528;PMS5003;35423;37.320;-121.762;2023-06-10T11:35:18;4;4;
49528;PMS5003;35423;37.320;-121.762;2023-06-10T11:37:42;4;4;
49528;PMS5003;35423;37.320;-121.762;2023-06-10T11:40:11;4;4;
49528;PMS5003;35423;37.320;-121.762;2023-06-10T11:42:38;5;5;
49528;PMS5003;35423;37.320;-121.762;2023-06-10T11:45:02;5;5;
49528;PMS5003;35423;37.320;-121.762;2023-06-10T11:47:31;5;5;
49528;PMS5003;35423;37.320;-121.762;2023-06-10T11:49:58;5;5;
49528;PMS5003;35423;37.320;-121.762;2023-06-10T11:52:35;2;2;
49528;PMS5003;35423;37.320;-121.762;2023-06-10T11:55:02;5;5;
49528;PMS5003;35423;37.320;-121.762;2023-06-10T11:57:27;3;3;
49528;PMS5003;35423;37.320;-121.762;2023-06-10T11:59:53;8;8;
49528;PMS5003;35423;37.320;-121.762;2023-06-10T12:02:18;6;6;
49528;PMS5003;35423;37.320;-121.762;2023-06-10T12:04:45;10;10;
49528;PMS5003;35423;37.320;-121.762;2023-06-10T12:07:17;8;8;
49528;PMS5003;35423;37.320;-121.762;2023-06-10T12:09:38;5;5;
49528;PMS5003;35423;37.320;-121.762;2023-06-10T12:12:05;5;5;
49528;PMS5003;35423;37.320;-121.762;2023-06-10T12:16:58;6;6;
49528;PMS5003;35423;37.320;-121.762;2023-06-10T12:19:27;5;5;
49528;PMS5003;35423;37.320;-121.762;2023-06-10T12:21:54;4;4;
49528;PMS5003;35423;37.320;-121.762;2023-06-10T12:24:21;1;1;
49528;PMS5003;35423;37.320;-121.762;2023-06-10T12:26:46;7;7;
49528;PMS5003;35423;37.320;-121.762;2023-06-10T12:29:17;8;8;
49528;PMS5003;35423;37.320;-121.762;2023-06-10T12:34:14;9;9;
49528;PMS5003;35423;37.320;-121.762;2023-06-10T12:39:12;7;7;
49528;PMS5003;35423;37.320;-121.762;2023-06-10T12:41:41;9;9;
49528;PMS5003;35423;37.320;-121.762;2023-06-10T12:44:09;7;7;
49528;PMS5003;35423;37.320;-121.762;2023-06-10T12:46:36;7;7;
49528;PMS5003;35423;37.320;-121.762;2023-06-10T12:49:00;5;5;
49528;PMS5003;35423;37.320;-121.762;2023-06-10T12:51:25;7;7;
49528;PMS5003;35423;37.320;-121.762;2023-06-10T12:53:54;2;2;
49528;PMS5003;35423;37.320;-121.762;2023-06-10T12:56:19;8;7;
49528;PMS5003;35423;37.320;-121.762;2023-06-10T12:58:47;11;11;
49528;PMS5003;35423;37.320;-121.762;2023-06-10T13:01:18;6;6;
49528;PMS5003;35423;37.320;-121.762;2023-06-10T13:03:47;20;5;
49528;PMS5003;35423;37.320;-121.762;2023-06-10T13:06:16;8;8;
49528;PMS5003;35423;37.320;-121.762;2023-06-10T13:08:43;8;8;
49528;PMS5003;35423;37.320;-121.762;2023-06-10T13:11:12;8;8;
49528;PMS5003;35423;37.320;-121.762;2023-06-10T13:13:40;7;7;
49528;PMS5003;35423;37.320;-121.762;2023-06-10T13:16:06;7;7;
49528;PMS5003;35423;37.320;-121.762;2023-06-10T13:18:35;7;7;
49528;PMS5003;35423;37.320;-121.762;2023-06-10T13:21:01;8;8;
49528;PMS5003;35423;37.320;-121.762;2023-06-10T13:23:27;9;7;
49528;PMS5003;35423;37.320;-121.762;2023-06-10T13:25:53;7;6;
49528;PMS5003;35423;37.320;-121.762;2023-06-10T13:28:22;9;9;
49528;PMS5003;35423;37.320;-121.762;2023-06-10T13:30:48;6;6;
49528;PMS5003;35423;37.320;-121.762;2023-06-10T13:33:15;8;8;
49528;PMS5003;35423;37.320;-121.762;2023-06-10T13:35:44;9;9;
49528;PMS5003;35423;37.320;-121.762;2023-06-10T13:38:10;8;8;
49528;PMS5003;35423;37.320;-121.762;2023-06-10T13:40:35;6;6;
49528;PMS5003;35423;37.320;-121.762;2023-06-10T13:43:02;6;6;
49528;PMS5003;35423;37.320;-121.762;2023-06-10T13:45:30;9;9;
49528;PMS5003;35423;37.320;-121.762;2023-06-10T13:47:56;7;7;
49528;PMS5003;35423;37.320;-121.762;2023-06-10T13:50:28;3;3;
49528;PMS5003;35423;37.320;-121.762;2023-06-10T13:52:53;7;7;
49528;PMS5003;35423;37.320;-121.762;2023-06-10T13:55:22;6;6;
49528;PMS5003;35423;37.320;-121.762;2023-06-10T13:57:47;5;5;
49528;PMS5003;35423;37.320;-121.762;2023-06-10T14:00:19;7;7;
49528;PMS5003;35423;37.320;-121.762;2023-06-10T14:02:44;6;6;
49528;PMS5003;35423;37.320;-121.762;2023-06-10T14:05:13;6;6;
49528;PMS5003;35423;37.320;-121.762;2023-06-10T14:07:43;5;5;
49528;PMS5003;35423;37.320;-121.762;2023-06-10T14:10:11;5;5;
49528;PMS5003;35423;37.320;-121.762;2023-06-10T14:12:42;3;3;
49528;PMS5003;35423;37.320;-121.762;2023-06-10T14:15:15;3;3;
49528;PMS5003;35423;37.320;-121.762;2023-06-10T14:17:37;4;4;
49528;PMS5003;35423;37.320;-121.762;2023-06-10T14:20:13;8;8;
49528;PMS5003;35423;37.320;-121.762;2023-06-10T14:22:43;7;7;
49528;PMS5003;35423;37.320;-121.762;2023-06-10T14:25:08;3;3;
49528;PMS5003;35423;37.320;-121.762;2023-06-10T14:27:39;5;5;
49528;PMS5003;35423;37.320;-121.762;2023-06-10T14:30:05;6;6;
49528;PMS5003;35423;37.320;-121.762;2023-06-10T14:32:29;4;4;
49528;PMS5003;35423;37.320;-121.762;2023-06-10T14:34:57;6;6;
49528;PMS5003;35423;37.320;-121.762;2023-06-10T14:37:22;4;4;
49528;PMS5003;35423;37.320;-121.762;2023-06-10T14:39:52;4;4;
49528;PMS5003;35423;37.320;-121.762;2023-06-10T14:42:26;8;8;
49528;PMS5003;35423;37.320;-121.762;2023-06-10T14:44:47;5;5;
49528;PMS5003;35423;37.320;-121.762;2023-06-10T14:47:12;11;7;
49528;PMS5003;35423;37.320;-121.762;2023-06-10T14:49:38;4;4;
49528;PMS5003;35423;37.320;-121.762;2023-06-10T14:52:05;4;4;
49528;PMS5003;35423;37.320;-121.762;2023-06-10T14:54:33;3;3;
49528;PMS5003;35423;37.320;-121.762;2023-06-10T14:57:15;6;6;
49528;PMS5003;35423;37.320;-121.762;2023-06-10T14:59:40;4;4;
49528;PMS5003;35423;37.320;-121.762;2023-06-10T15:02:09;5;5;
49528;PMS5003;35423;37.320;-121.762;2023-06-10T15:04:38;3;3;
49528;PMS5003;35423;37.320;-121.762;2023-06-10T15:07:10;1;1;
49528;PMS5003;35423;37.320;-121.762;2023-06-10T15:09:41;5;5;
49528;PMS5003;35423;37.320;-121.762;2023-06-10T15:12:09;3;3;
49528;PMS5003;35423;37.320;-121.762;2023-06-10T15:14:35;9;9;
49528;PMS5003;35423;37.320;-121.762;2023-06-10T15:17:02;9;9;
49528;PMS5003;35423;37.320;-121.762;2023-06-10T15:19:36;3;3;
49528;PMS5003;35423;37.320;-121.762;2023-06-10T15:22:04;7;7;
49528;PMS5003;35423;37.320;-121.762;2023-06-10T15:24:28;5;5;
49528;PMS5003;35423;37.320;-121.762;2023-06-10T15:26:59;6;6;
49528;PMS5003;35423;37.320;-121.762;2023-06-10T15:29:25;9;8;
49528;PMS5003;35423;37.320;-121.762;2023-06-10T15:31:51;3;3;
49528;PMS5003;35423;37.320;-121.762;2023-06-10T15:34:23;5;5;
49528;PMS5003;35423;37.320;-121.762;2023-06-10T15:36:51;5;5;
49528;PMS5003;35423;37.320;-121.762;2023-06-10T15:39:16;4;4;
49528;PMS5003;35423;37.320;-121.762;2023-06-10T15:41:46;2;2;
49528;PMS5003;35423;37.320;-121.762;2023-06-10T15:44:12;6;6;
49528;PMS5003;35423;37.320;-121.762;2023-06-10T15:46:39;6;6;
49528;PMS5003;35423;37.320;-121.762;2023-06-10T15:49:04;5;5;
49528;PMS5003;35423;37.320;-121.762;2023-06-10T15:51:39;5;5;
49528;PMS5003;35423;37.320;-121.762;2023-06-10T15:54:04;3;3;
49528;PMS5003;35423;37.320;-121.762;2023-06-10T15:56:30;11;11;
49528;PMS5003;35423;37.320;-121.762;2023-06-10T15:58:55;3;3;
49528;PMS5003;35423;37.320;-121.762;2023-06-10T16:01:20;5;5;
49528;PMS5003;35423;37.320;-121.762;2023-06-10T16:03:46;3;3;
49528;PMS5003;35423;37.320;-121.762;2023-06-10T16:06:14;4;4;
49528;PMS5003;35423;37.320;-121.762;2023-06-10T16:08:40;4;4;
49528;PMS5003;35423;37.320;-121.762;2023-06-10T16:11:08;6;6;
49528;PMS5003;35423;37.320;-121.762;2023-06-10T16:13:33;3;3;
49528;PMS5003;35423;37.320;-121.762;2023-06-10T16:16:02;5;5;
49528;PMS5003;35423;37.320;-121.762;2023-06-10T16:18:29;6;6;
49528;PMS5003;35423;37.320;-121.762;2023-06-10T16:20:56;8;8;
49528;PMS5003;35423;37.320;-121.762;2023-06-10T16:23:25;7;4;
49528;PMS5003;35423;37.320;-121.762;2023-06-10T16:25:51;4;4;
49528;PMS5003;35423;37.320;-121.762;2023-06-10T16:28:18;3;3;